Time;durP1;ratioP1;P1;durP2;ratioP2;P2;SDS_P1;SDS_P2;PMS_P1;PMS_P2;Temp;Humidity;BMP_temperature;BMP_pressure;BME280_temperature;BME280_humidity;BME280_pressure;Samples;Min_cycle;Max_cycle;Signal;HPM_P1;HPM_P2
2022/12/18 00:01:21;;;;;;;31.85;15.68;;;;;;;-9.29;100.00;150250.97;5024705;28;20044;-76
2022/12/18 00:03:48;;;;;;;36.77;14.73;;;;;;;-9.35;100.00;150235.81;5028534;28;20054;-74
2022/12/18 00:06:15;;;;;;;32.45;14.43;;;;;;;-9.34;100.00;150237.06;5040932;28;20044;-77
2022/12/18 00:08:42;;;;;;;35.55;14.48;;;;;;;-9.38;100.00;150226.94;5022897;28;20093;-74
2022/12/18 00:11:10;;;;;;;30.27;14.45;;;;;;;-9.44;100.00;150214.28;5037336;28;20029;-74
2022/12/18 00:13:37;;;;;;;32.70;14.93;;;;;;;-9.49;100.00;150201.69;5043367;28;20032;-75
2022/12/18 00:16:08;;;;;;;33.88;15.10;;;;;;;-9.50;100.00;150197.88;5041680;28;20025;-75
2022/12/18 00:18:34;;;;;;;36.30;15.25;;;;;;;-9.51;100.00;150196.63;5028407;28;20775;-74
2022/12/18 00:21:01;;;;;;;29.33;14.30;;;;;;;-9.47;100.00;150205.47;5038609;28;20724;-75
2022/12/18 00:23:28;;;;;;;31.02;14.40;;;;;;;-9.45;100.00;150211.78;5038071;28;20032;-74
2022/12/18 00:25:54;;;;;;;31.05;14.85;;;;;;;-9.43;100.00;150215.59;5025414;28;20151;-74
2022/12/18 00:28:19;;;;;;;35.70;14.60;;;;;;;-9.44;100.00;150214.28;5029964;28;20105;-76
2022/12/18 00:30:45;;;;;;;33.60;14.93;;;;;;;-9.47;100.00;150206.75;5011975;28;20032;-75
2022/12/18 00:33:11;;;;;;;31.60;15.10;;;;;;;-9.54;100.00;150189.03;5029827;28;20040;-75
2022/12/18 00:35:37;;;;;;;30.98;13.07;;;;;;;-9.55;100.00;150186.47;5026367;28;20028;-75
2022/12/18 00:38:02;;;;;;;28.17;13.82;;;;;;;-9.55;100.00;150185.22;5053164;28;20033;-75
2022/12/18 00:40:28;;;;;;;26.05;13.43;;;;;;;-9.55;100.00;150185.22;5053569;28;20126;-75
2022/12/18 00:42:56;;;;;;;33.42;14.60;;;;;;;-9.57;100.00;150180.19;5039927;28;20069;-75
2022/12/18 00:45:30;;;;;;;33.83;14.43;;;;;;;-9.62;100.00;150170.06;5036313;28;20041;-74
2022/12/18 00:47:56;;;;;;;29.23;14.02;;;;;;;-9.59;100.00;150176.38;5034171;28;20507;-75
2022/12/18 00:50:24;;;;;;;32.22;13.82;;;;;;;-9.62;100.00;150168.81;5051995;28;20044;-75
2022/12/18 00:52:50;;;;;;;30.85;13.77;;;;;;;-9.66;100.00;150159.97;5061268;28;20042;-76
2022/12/18 00:55:16;;;;;;;29.73;13.63;;;;;;;-9.67;100.00;150157.44;5027166;28;20039;-75
2022/12/18 00:57:42;;;;;;;37.92;14.73;;;;;;;-9.68;100.00;150153.63;5065232;28;20401;-75
2022/12/18 01:00:10;;;;;;;29.15;13.75;;;;;;;-9.76;100.00;150133.41;5033403;28;20032;-74
2022/12/18 01:02:36;;;;;;;33.35;14.25;;;;;;;-9.74;100.00;150139.72;5048643;28;20043;-75
2022/12/18 01:05:02;;;;;;;43.35;15.95;;;;;;;-9.75;100.00;150135.97;5035826;28;20126;-74
2022/12/18 01:07:27;;;;;;;28.92;13.15;;;;;;;-9.77;100.00;150132.16;5054417;28;20072;-74
2022/12/18 01:09:53;;;;;;;33.83;14.65;;;;;;;-9.76;100.00;150134.66;5052565;28;20063;-75
2022/12/18 01:12:19;;;;;;;28.98;13.95;;;;;;;-9.81;100.00;150123.31;5034682;28;20044;-74
2022/12/18 01:14:44;;;;;;;32.38;13.93;;;;;;;-9.83;100.00;150116.97;5070019;28;20089;-74
2022/12/18 01:17:10;;;;;;;30.27;13.30;;;;;;;-9.85;100.00;150111.91;5052835;28;20151;-75
2022/12/18 01:19:36;;;;;;;33.25;13.57;;;;;;;-9.82;100.00;150120.78;5029401;28;20116;-74
2022/12/18 01:22:03;;;;;;;29.67;13.52;;;;;;;-9.76;100.00;150133.41;5038923;28;20028;-75
2022/12/18 01:24:28;;;;;;;26.65;12.93;;;;;;;-9.77;100.00;150132.16;5054420;28;20032;-74
2022/12/18 01:26:54;;;;;;;31.83;13.68;;;;;;;-9.77;100.00;150130.88;5055639;28;20116;-74
2022/12/18 01:29:20;;;;;;;30.85;13.85;;;;;;;-9.78;100.00;150129.63;5024461;28;20113;-75
2022/12/18 01:31:45;;;;;;;29.98;13.20;;;;;;;-9.73;100.00;150141.03;5027916;28;20036;-74
2022/12/18 01:34:11;;;;;;;30.90;13.40;;;;;;;-9.69;100.00;150152.38;5040459;28;20040;-74
2022/12/18 01:36:38;;;;;;;30.05;13.30;;;;;;;-9.68;100.00;150154.91;5043590;28;20431;-75
2022/12/18 01:39:07;;;;;;;34.55;14.50;;;;;;;-9.65;100.00;150161.22;5037246;28;20066;-74
2022/12/18 01:44:55;;;;;;;28.13;13.07;;;;;;;-9.69;100.00;150152.38;5044703;28;20497;-74
2022/12/18 01:47:41;;;;;;;29.52;13.05;;;;;;;-9.77;100.00;150130.88;5040494;28;20032;-74
2022/12/18 01:50:12;;;;;;;23.73;11.65;;;;;;;-9.79;100.00;150127.13;5048413;28;20572;-76
2022/12/18 01:52:46;;;;;;;26.02;12.00;;;;;;;-9.79;100.00;150128.38;5068896;28;20115;-74
2022/12/18 01:55:14;;;;;;;33.15;12.50;;;;;;;-9.82;100.00;150120.78;5022106;28;20097;-74
2022/12/18 01:57:40;;;;;;;26.02;13.10;;;;;;;-9.85;100.00;150113.22;5029114;28;20085;-74
2022/12/18 02:00:13;;;;;;;29.85;12.25;;;;;;;-9.88;100.00;150105.63;5036509;28;20090;-74
2022/12/18 02:02:40;;;;;;;27.65;12.18;;;;;;;-9.89;100.00;150103.06;5036185;28;20032;-74
2022/12/18 02:05:07;;;;;;;26.23;12.30;;;;;;;-9.90;100.00;150099.31;5040050;28;20033;-74
2022/12/18 02:08:03;;;;;;;24.33;11.77;;;;;;;-9.76;100.00;150134.66;5040484;28;20469;-74
2022/12/18 02:10:48;;;;;;;30.30;12.90;;;;;;;-9.62;100.00;150170.06;5037057;28;20032;-74
2022/12/18 02:13:23;;;;;;;26.55;11.73;;;;;;;-9.50;100.00;150199.13;5049370;28;20040;-74
2022/12/18 02:16:11;;;;;;;29.95;12.25;;;;;;;-9.59;100.00;150176.38;5031567;28;20493;-74
2022/12/18 02:18:45;;;;;;;29.20;12.82;;;;;;;-9.60;100.00;150173.88;5033444;28;20123;-75
2022/12/18 02:21:31;;;;;;;30.08;12.50;;;;;;;-9.62;100.00;150170.06;5039577;28;20040;-74
2022/12/18 02:24:13;;;;;;;30.50;12.30;;;;;;;-9.64;100.00;150163.78;5049670;28;20036;-74
2022/12/18 02:26:49;;;;;;;32.92;12.10;;;;;;;-9.57;100.00;150180.19;5044336;28;20063;-74
2022/12/18 02:29:30;;;;;;;33.67;12.98;;;;;;;-9.47;100.00;150205.47;5036397;28;20504;-74
2022/12/18 02:32:02;;;;;;;28.52;12.38;;;;;;;-9.51;100.00;150196.63;5053536;28;20499;-74
2022/12/18 02:34:35;;;;;;;29.55;12.60;;;;;;;-9.57;100.00;150181.44;5053537;28;20126;-74
2022/12/18 02:37:05;;;;;;;26.85;11.73;;;;;;;-9.63;100.00;150166.28;5033575;28;20090;-74
2022/12/18 02:39:34;;;;;;;25.98;11.88;;;;;;;-9.66;100.00;150158.66;5061779;28;20048;-74
2022/12/18 02:42:07;;;;;;;23.77;11.27;;;;;;;-9.79;100.00;150128.38;5031984;28;20439;-74
2022/12/18 02:44:41;;;;;;;24.23;12.23;;;;;;;-9.89;100.00;150101.81;5044428;28;20032;-74
2022/12/18 02:47:12;;;;;;;25.75;12.32;;;;;;;-9.95;100.00;150086.66;5033017;28;20032;-74
2022/12/18 02:49:57;;;;;;;24.75;11.68;;;;;;;-9.98;100.00;150080.38;5042082;28;20119;-74
2022/12/18 02:52:43;;;;;;;24.48;11.23;;;;;;;-9.99;100.00;150079.06;5042611;28;20040;-74
2022/12/18 02:55:39;;;;;;;23.73;10.57;;;;;;;-9.97;100.00;150082.88;5032203;28;20033;-74
2022/12/18 02:58:22;;;;;;;25.85;10.98;;;;;;;-9.99;100.00;150077.81;5037098;28;20071;-74
2022/12/18 03:01:05;;;;;;;22.17;10.85;;;;;;;-10.04;100.00;150066.47;5028589;28;20036;-74
2022/12/18 03:03:38;;;;;;;25.60;11.77;;;;;;;-10.05;100.00;150062.66;5018803;28;20174;-74
2022/12/18 03:06:10;;;;;;;22.60;10.32;;;;;;;-10.10;100.00;150051.28;5029654;28;20043;-74
2022/12/18 03:08:41;;;;;;;21.42;10.30;;;;;;;-10.08;100.00;150056.31;5031570;28;20066;-73
2022/12/18 03:11:10;;;;;;;25.02;9.65;;;;;;;-10.09;100.00;150053.81;5042755;28;20113;-74
2022/12/18 03:13:44;;;;;;;28.35;10.18;;;;;;;-10.10;100.00;150050.03;5061134;28;20040;-74
2022/12/18 03:16:18;;;;;;;29.15;11.10;;;;;;;-10.10;100.00;150050.03;5032226;28;20024;-74
2022/12/18 03:19:04;;;;;;;25.23;11.40;;;;;;;-10.11;100.00;150047.47;5031039;28;20041;-74
2022/12/18 03:21:44;;;;;;;21.90;10.63;;;;;;;-10.13;100.00;150043.72;5046507;28;20101;-74
2022/12/18 03:24:11;;;;;;;21.13;10.10;;;;;;;-10.18;100.00;150032.31;5024122;28;20035;-74
2022/12/18 03:26:42;;;;;;;28.65;11.07;;;;;;;-10.21;100.00;150024.78;5051652;28;20109;-74
2022/12/18 03:29:16;;;;;;;27.02;11.80;;;;;;;-10.21;100.00;150024.78;5040022;28;20131;-74
2022/12/18 03:31:49;;;;;;;23.63;10.63;;;;;;;-10.20;100.00;150027.28;5061070;28;20108;-74
2022/12/18 03:34:17;;;;;;;;;;;;;;;-10.18;100.00;150031.06;5028010;28;20052;-74
2022/12/18 03:36:45;;;;;;;20.90;9.50;;;;;;;-10.21;100.00;150023.47;5055973;28;19951;-74
2022/12/18 03:39:12;;;;;;;24.02;9.93;;;;;;;-10.16;100.00;150036.13;5029656;28;20063;-74
2022/12/18 03:41:51;;;;;;;23.15;9.50;;;;;;;-10.18;100.00;150032.31;5036508;28;20075;-74
2022/12/18 03:44:50;;;;;;;19.90;9.35;;;;;;;-10.21;100.00;150024.78;5015353;28;20697;-74
2022/12/18 03:47:36;;;;;;;23.88;9.75;;;;;;;-10.22;100.00;150022.22;5046480;28;20717;-74
2022/12/18 03:50:19;;;;;;;21.60;9.25;;;;;;;-10.14;100.00;150039.94;5029469;28;20032;-74
2022/12/18 03:52:54;;;;;;;21.33;10.02;;;;;;;-10.04;100.00;150066.47;5044425;28;20027;-74
2022/12/18 03:55:23;;;;;;;24.63;10.13;;;;;;;-9.94;100.00;150089.16;5031398;28;20040;-74
2022/12/18 03:57:56;;;;;;;22.27;11.23;;;;;;;-9.86;100.00;150109.41;5030649;28;20060;-74
2022/12/18 04:00:23;;;;;;;24.73;10.63;;;;;;;-9.84;100.00;150114.47;5031305;28;20044;-74
2022/12/18 04:03:05;;;;;;;26.38;10.93;;;;;;;-9.86;100.00;150109.41;5053233;28;20038;-74
2022/12/18 04:05:38;;;;;;;25.38;10.85;;;;;;;-9.79;100.00;150128.38;5046861;28;20115;-74
2022/12/18 04:08:06;;;;;;;26.35;10.77;;;;;;;-9.76;100.00;150133.41;5048697;28;20043;-74
2022/12/18 04:10:36;;;;;;;27.65;9.95;;;;;;;-9.73;100.00;150142.28;5073538;28;20032;-74
2022/12/18 04:13:02;;;;;;;24.60;11.05;;;;;;;-9.57;100.00;150181.44;5048060;28;20520;-74
2022/12/18 04:15:28;;;;;;;24.85;10.07;;;;;;;-9.48;100.00;150202.94;5038372;28;20044;-74
2022/12/18 04:17:55;;;;;;;25.50;10.90;;;;;;;-9.52;100.00;150194.09;5039762;28;20064;-74
2022/12/18 04:20:23;;;;;;;19.45;10.10;;;;;;;-9.51;100.00;150196.63;5032104;28;20128;-74
2022/12/18 04:22:49;;;;;;;25.63;10.63;;;;;;;-9.41;100.00;150220.66;5058358;28;20088;-74
2022/12/18 04:25:14;;;;;;;24.20;12.23;;;;;;;-9.32;100.00;150242.09;5045243;28;20043;-73
2022/12/18 04:27:52;;;;;;;23.20;10.73;;;;;;;-9.29;100.00;150249.72;5052223;28;20041;-74
2022/12/18 04:30:18;;;;;;;22.58;10.38;;;;;;;-9.21;100.00;150269.91;5031729;28;20386;-74
2022/12/18 04:32:43;;;;;;;28.80;10.52;;;;;;;-9.26;100.00;150257.31;5042488;28;20174;-75
2022/12/18 04:35:11;;;;;;;23.25;11.30;;;;;;;-9.31;100.00;150245.91;5039699;28;20036;-74
2022/12/18 04:37:38;;;;;;;23.55;10.98;;;;;;;-9.36;100.00;150233.28;5051501;28;20040;-74
2022/12/18 04:40:05;;;;;;;20.65;10.07;;;;;;;-9.45;100.00;150211.78;5021605;28;20044;-74
2022/12/18 04:42:40;;;;;;;20.45;9.75;;;;;;;-9.61;100.00;150171.31;5056404;28;20036;-74
2022/12/18 04:45:06;;;;;;;22.30;10.52;;;;;;;-9.73;100.00;150141.03;5055274;28;20483;-74
2022/12/18 04:47:32;;;;;;;24.05;10.32;;;;;;;-9.88;100.00;150105.63;5039645;28;20036;-74
2022/12/18 04:49:58;;;;;;;23.80;9.70;;;;;;;-9.91;100.00;150098.03;5029231;28;20044;-74
2022/12/18 04:52:23;;;;;;;23.92;9.80;;;;;;;-9.92;100.00;150095.53;5058812;28;20039;-74
2022/12/18 04:54:49;;;;;;;22.17;10.35;;;;;;;-9.84;100.00;150114.47;5062325;28;20035;-74
2022/12/18 04:57:15;;;;;;;24.10;10.30;;;;;;;-9.86;100.00;150109.41;5033956;28;20040;-74
2022/12/18 04:59:41;;;;;;;22.88;10.02;;;;;;;-9.93;100.00;150091.72;5044546;28;20043;-74
2022/12/18 05:02:06;;;;;;;21.42;9.88;;;;;;;-10.02;100.00;150070.22;5055781;28;20106;-74
2022/12/18 05:04:32;;;;;;;21.70;9.75;;;;;;;-10.11;100.00;150047.47;5041906;28;20089;-74
2022/12/18 05:06:57;;;;;;;25.38;9.85;;;;;;;-10.13;100.00;150042.44;5053475;28;20481;-74
2022/12/18 05:09:23;;;;;;;21.33;9.98;;;;;;;-10.18;100.00;150031.06;5032498;28;20040;-74
2022/12/18 05:11:49;;;;;;;22.17;9.88;;;;;;;-10.21;100.00;150023.47;5048822;28;20032;-74
2022/12/18 05:14:15;;;;;;;23.13;9.75;;;;;;;-10.19;100.00;150028.53;5030664;28;20033;-74
2022/12/18 05:16:40;;;;;;;20.20;9.45;;;;;;;-10.26;100.00;150012.13;5069945;28;20040;-74
2022/12/18 05:19:06;;;;;;;18.50;9.40;;;;;;;-10.27;100.00;150008.34;5026229;28;20040;-74
2022/12/18 05:21:32;;;;;;;22.90;10.23;;;;;;;-10.25;100.00;150014.63;5047836;28;20516;-74
2022/12/18 05:23:57;;;;;;;24.52;10.93;;;;;;;-10.32;100.00;149997.03;5051769;28;20040;-74
2022/12/18 05:26:23;;;;;;;20.60;9.00;;;;;;;-10.29;100.00;150004.53;5027066;28;20033;-74
2022/12/18 05:28:49;;;;;;;30.02;10.63;;;;;;;-10.26;100.00;150012.13;5038734;28;20047;-74
2022/12/18 05:31:15;;;;;;;19.90;9.88;;;;;;;-10.24;100.00;150015.94;5074816;28;20043;-74
2022/12/18 05:33:40;;;;;;;29.75;12.10;;;;;;;-10.20;100.00;150026.03;5037750;28;20374;-74
2022/12/18 05:36:07;;;;;;;23.40;10.60;;;;;;;-10.12;100.00;150046.22;5021116;28;20082;-74
2022/12/18 05:38:35;;;;;;;26.85;11.82;;;;;;;-10.04;100.00;150066.47;5068043;28;20074;-74
2022/12/18 05:41:02;;;;;;;27.58;11.23;;;;;;;-10.03;100.00;150068.97;5019028;28;20035;-74
2022/12/18 05:43:28;;;;;;;25.90;11.05;;;;;;;-10.07;100.00;150057.63;5040227;28;20407;-74
2022/12/18 05:45:54;;;;;;;30.73;12.20;;;;;;;-10.10;100.00;150051.28;5051488;28;20024;-74
2022/12/18 05:48:20;;;;;;;25.33;11.38;;;;;;;-10.08;100.00;150056.31;5049559;28;20387;-74
2022/12/18 05:50:47;;;;;;;25.50;11.13;;;;;;;-10.00;100.00;150076.56;5032631;28;20036;-74
2022/12/18 05:53:16;;;;;;;24.42;11.07;;;;;;;-9.93;100.00;150091.72;5028586;28;20194;-74
2022/12/18 05:55:43;;;;;;;25.33;11.98;;;;;;;-9.82;100.00;150119.53;5056167;28;20509;-74
2022/12/18 05:58:10;;;;;;;28.83;12.20;;;;;;;-9.86;100.00;150109.41;5033043;28;20040;-74
2022/12/18 06:00:39;;;;;;;26.83;12.15;;;;;;;-9.90;100.00;150099.31;5051401;28;20114;-74
2022/12/18 06:03:09;;;;;;;27.02;11.75;;;;;;;-9.80;100.00;150124.56;5041329;28;20398;-74
2022/12/18 06:05:37;;;;;;;27.38;12.20;;;;;;;-9.54;100.00;150189.03;5033481;28;20036;-74
2022/12/18 06:08:03;;;;;;;29.27;12.80;;;;;;;-9.53;100.00;150191.59;5032930;28;20040;-74
2022/12/18 06:10:28;;;;;;;30.92;12.70;;;;;;;-9.66;100.00;150158.66;5036679;28;20485;-74
2022/12/18 06:12:54;;;;;;;26.45;11.43;;;;;;;-9.72;100.00;150143.53;5023065;28;20092;-74
2022/12/18 06:15:19;;;;;;;26.55;11.73;;;;;;;-9.71;100.00;150146.06;5029102;28;20078;-74
2022/12/18 06:17:45;;;;;;;25.80;12.10;;;;;;;-9.61;100.00;150172.59;5031996;28;20038;-74
2022/12/18 06:20:11;;;;;;;26.25;12.77;;;;;;;-9.66;100.00;150159.97;5052848;28;20032;-74
2022/12/18 06:22:36;;;;;;;26.95;12.88;;;;;;;-9.67;100.00;150157.44;5054739;28;20335;-75
2022/12/18 06:25:03;;;;;;;28.95;13.10;;;;;;;-9.67;100.00;150156.19;5058095;28;20774;-74
2022/12/18 06:27:29;;;;;;;35.10;12.27;;;;;;;-9.57;100.00;150181.44;5038853;28;20501;-74
2022/12/18 06:29:54;;;;;;;26.63;12.73;;;;;;;-9.57;100.00;150181.44;5036680;28;20036;-74
2022/12/18 06:32:20;;;;;;;24.33;11.88;;;;;;;-9.62;100.00;150170.06;5038119;28;20028;-74
2022/12/18 06:34:45;;;;;;;30.13;13.35;;;;;;;-9.62;100.00;150168.81;5057501;28;20047;-74
2022/12/18 06:37:11;;;;;;;24.50;12.98;;;;;;;-9.68;100.00;150154.91;5038908;28;20059;-74
2022/12/18 06:39:37;;;;;;;31.08;11.52;;;;;;;-9.72;100.00;150143.53;5040380;28;20448;-74
2022/12/18 06:42:03;;;;;;;31.55;12.82;;;;;;;-9.75;100.00;150135.97;5044250;28;20393;-74
2022/12/18 06:44:28;;;;;;;34.13;12.90;;;;;;;-9.80;100.00;150124.56;5038938;28;20756;-74
2022/12/18 06:46:54;;;;;;;24.30;11.70;;;;;;;-9.92;100.00;150095.53;5032118;28;20036;-74
2022/12/18 06:49:20;;;;;;;29.92;12.82;;;;;;;-9.92;100.00;150095.53;5080517;28;20020;-74
2022/12/18 06:51:53;;;;;;;26.67;12.55;;;;;;;-9.96;100.00;150085.41;5087072;27;20382;-75
2022/12/18 06:54:19;;;;;;;25.70;11.95;;;;;;;-9.95;100.00;150087.91;5074947;28;20043;-75
2022/12/18 06:56:45;;;;;;;32.50;12.80;;;;;;;-9.94;100.00;150089.16;5056733;28;20076;-75
2022/12/18 06:59:12;;;;;;;29.85;12.27;;;;;;;-9.91;100.00;150098.03;5030242;28;20047;-75
2022/12/18 07:01:38;;;;;;;28.90;12.25;;;;;;;-9.86;100.00;150110.66;5056433;28;21910;-75
2022/12/18 07:04:03;;;;;;;30.92;12.80;;;;;;;-9.85;100.00;150113.22;5035414;28;20041;-74
2022/12/18 07:06:29;;;;;;;28.20;13.75;;;;;;;-9.85;100.00;150113.22;5030192;28;20047;-74
2022/12/18 07:08:55;;;;;;;27.70;12.32;;;;;;;-9.78;100.00;150129.63;5021036;28;20086;-75
2022/12/18 07:11:21;;;;;;;26.23;12.45;;;;;;;-9.72;100.00;150143.53;5041083;28;20881;-75
2022/12/18 07:13:47;;;;;;;29.45;12.65;;;;;;;-9.80;100.00;150124.56;5059113;28;20049;-75
2022/12/18 07:16:18;;;;;;;26.25;12.70;;;;;;;-9.86;100.00;150110.66;5015688;28;20081;-75
2022/12/18 07:18:44;;;;;;;28.38;12.35;;;;;;;-9.83;100.00;150118.28;5032311;28;20071;-74
2022/12/18 07:21:13;;;;;;;22.77;11.02;;;;;;;-9.80;100.00;150124.56;5013975;28;20055;-74
2022/12/18 07:23:39;;;;;;;31.70;12.88;;;;;;;-9.68;100.00;150153.63;5031540;28;20482;-76
2022/12/18 07:26:10;;;;;;;30.88;12.52;;;;;;;-9.60;100.00;150175.13;5046460;28;20051;-74
2022/12/18 07:28:37;;;;;;;31.70;13.65;;;;;;;-9.58;100.00;150178.94;5037143;28;20033;-75
2022/12/18 07:31:05;;;;;;;31.85;12.50;;;;;;;-9.61;100.00;150172.59;5021863;28;20032;-75
2022/12/18 07:33:31;;;;;;;28.95;13.23;;;;;;;-9.65;100.00;150161.22;5027660;28;20040;-75
2022/12/18 07:35:59;;;;;;;28.98;11.80;;;;;;;-9.72;100.00;150143.53;5017734;28;20124;-75
2022/12/18 07:38:24;;;;;;;30.67;12.98;;;;;;;-9.79;100.00;150128.38;5047432;28;20033;-75
2022/12/18 07:40:50;;;;;;;25.23;11.93;;;;;;;-9.85;100.00;150113.22;5034000;28;20094;-75
2022/12/18 07:43:15;;;;;;;29.08;12.07;;;;;;;-9.81;100.00;150122.06;5031724;28;20112;-75
2022/12/18 07:45:42;;;;;;;29.10;12.27;;;;;;;-9.77;100.00;150130.88;5017984;28;20064;-75
2022/12/18 07:48:08;;;;;;;30.40;13.25;;;;;;;-9.76;100.00;150133.41;5062901;28;20043;-75
2022/12/18 07:50:33;;;;;;;27.95;13.05;;;;;;;-9.77;100.00;150132.16;5043620;28;20032;-74
2022/12/18 07:53:03;;;;;;;25.58;12.65;;;;;;;-9.72;100.00;150144.78;5034736;28;20037;-75
2022/12/18 07:55:30;;;;;;;29.42;13.30;;;;;;;-9.65;100.00;150161.22;5037538;28;20668;-75
2022/12/18 07:57:56;;;;;;;27.40;12.88;;;;;;;-9.66;100.00;150158.66;5031765;28;20057;-75
2022/12/18 08:00:22;;;;;;;36.25;14.27;;;;;;;-9.63;100.00;150166.28;5019505;28;20048;-74
2022/12/18 08:02:47;;;;;;;30.25;13.60;;;;;;;-9.68;100.00;150153.63;5000031;28;20040;-74
2022/12/18 08:05:13;;;;;;;30.60;13.60;;;;;;;-9.66;100.00;150158.66;5014450;28;20402;-73
2022/12/18 08:07:39;;;;;;;31.02;14.57;;;;;;;-9.44;100.00;150214.28;5019370;28;20056;-74
2022/12/18 08:10:06;;;;;;;31.35;13.85;;;;;;;-9.42;100.00;150219.41;5033232;28;20071;-74
2022/12/18 08:12:32;;;;;;;31.88;15.02;;;;;;;-9.33;100.00;150240.84;5036941;28;20094;-74
2022/12/18 08:14:57;;;;;;;31.67;14.75;;;;;;;-9.33;100.00;150239.59;5020609;28;20446;-74
2022/12/18 08:17:23;;;;;;;40.08;15.45;;;;;;;-9.34;100.00;150238.34;5016884;28;20091;-73
2022/12/18 08:19:49;;;;;;;30.88;15.15;;;;;;;-9.37;100.00;150230.75;5047701;28;20037;-74
2022/12/18 08:22:14;;;;;;;34.92;15.00;;;;;;;-9.35;100.00;150235.81;5003869;28;20589;-74
2022/12/18 08:24:40;;;;;;;44.38;17.00;;;;;;;-9.35;100.00;150235.81;5035454;28;20082;-74
2022/12/18 08:27:05;;;;;;;36.55;16.90;;;;;;;-9.28;100.00;150252.25;5031987;28;20032;-74
2022/12/18 08:29:31;;;;;;;30.85;15.02;;;;;;;-9.21;100.00;150269.91;5014191;28;20398;-74
2022/12/18 08:31:57;;;;;;;38.03;15.57;;;;;;;-9.19;100.00;150275.03;5036227;28;20041;-73
2022/12/18 08:34:23;;;;;;;38.97;17.33;;;;;;;-9.21;100.00;150271.22;5038753;28;20148;-74
2022/12/18 08:36:48;;;;;;;37.38;15.35;;;;;;;-9.06;100.00;150307.88;5032305;28;20045;-74
2022/12/18 08:39:14;;;;;;;37.30;15.57;;;;;;;-8.96;100.00;150330.66;5021376;28;20036;-74
2022/12/18 08:41:40;;;;;;;35.63;16.08;;;;;;;-8.93;100.00;150338.22;5004548;28;20037;-74
2022/12/18 08:46:51;;;;;;;31.85;14.40;;;;;;;-8.80;100.00;150371.09;5028519;28;20041;-74
2022/12/18 08:49:17;;;;;;;36.33;16.08;;;;;;;-8.74;100.00;150385.00;5034356;28;20062;-74
2022/12/18 08:51:43;;;;;;;35.75;15.88;;;;;;;-8.74;100.00;150386.25;5034555;28;20040;-74
2022/12/18 08:54:12;;;;;;;37.10;15.23;;;;;;;-8.76;100.00;150381.19;5042432;28;20048;-74
2022/12/18 08:56:38;;;;;;;45.20;16.27;;;;;;;-8.69;100.00;150398.91;5013296;28;20040;-73
2022/12/18 08:59:04;;;;;;;35.85;15.18;;;;;;;-8.55;100.00;150431.81;5022832;28;20145;-74
2022/12/18 09:01:29;;;;;;;34.30;15.52;;;;;;;-8.56;100.00;150430.56;5015165;28;20486;-73
2022/12/18 09:03:55;;;;;;;37.00;16.05;;;;;;;-8.44;100.00;150460.94;5038011;28;20094;-74
2022/12/18 09:06:22;;;;;;;38.60;15.48;;;;;;;-8.36;100.00;150478.56;5029482;28;20518;-74
2022/12/18 09:08:48;;;;;;;34.90;15.38;;;;;;;-8.25;100.00;150507.69;5007965;28;20494;-74
2022/12/18 09:11:25;;;;;;;37.08;15.45;;;;;;;-8.23;100.00;150511.47;4989715;28;20044;-74
2022/12/18 09:13:52;;;;;;;38.20;15.50;;;;;;;-8.11;100.00;150540.59;5007117;28;20100;-74
2022/12/18 09:16:19;;;;;;;28.00;14.40;;;;;;;-8.07;100.00;150550.72;5036351;28;20039;-74
2022/12/18 09:18:45;;;;;;;33.22;15.80;;;;;;;-7.96;100.00;150578.56;5015546;28;20111;-74
2022/12/18 09:21:13;;;;;;;31.05;15.25;;;;;;;-7.96;100.00;150577.31;5031055;28;20041;-74
2022/12/18 09:23:39;;;;;;;34.55;14.98;;;;;;;-7.90;100.00;150592.47;5026480;28;20050;-74
2022/12/18 09:26:05;;;;;;;38.00;14.63;;;;;;;-7.83;100.00;150611.47;5003950;28;20081;-74
2022/12/18 09:28:31;;;;;;;34.58;15.05;;;;;;;-7.76;100.00;150627.94;5027081;28;20067;-74
2022/12/18 09:30:56;;;;;;;34.03;14.90;;;;;;;-7.59;100.00;150668.41;5006640;28;20064;-74
2022/12/18 09:33:22;;;;;;;31.60;15.57;;;;;;;-7.42;100.00;150711.50;5030615;28;20491;-74
2022/12/18 09:35:48;;;;;;;34.78;14.35;;;;;;;-7.37;100.00;150724.13;5021308;28;20109;-74
2022/12/18 09:38:17;;;;;;;32.80;14.68;;;;;;;-7.33;100.00;150734.25;5009103;28;20045;-74
2022/12/18 09:40:47;;;;;;;34.80;14.68;;;;;;;-7.25;100.00;150754.53;5008049;28;20041;-73
2022/12/18 09:43:24;;;;;;;35.08;15.05;;;;;;;-7.22;100.00;150760.84;5039779;28;20388;-74
2022/12/18 09:45:59;;;;;;;34.92;15.18;;;;;;;-7.12;100.00;150784.91;4997693;28;20055;-74
2022/12/18 09:48:30;;;;;;;35.90;15.48;;;;;;;-6.97;100.00;150822.91;5023652;28;20048;-74
2022/12/18 09:51:03;;;;;;;30.77;15.07;;;;;;;-6.83;100.00;150855.88;5034089;28;20052;-74
2022/12/18 09:53:32;;;;;;;;;;;;;;;-6.67;100.00;150897.69;5030271;28;20052;-74
2022/12/18 09:56:03;;;;;;;36.53;15.25;;;;;;;-6.51;100.00;150936.94;5003994;28;19921;-75
2022/12/18 09:58:48;;;;;;;34.08;15.15;;;;;;;-6.49;100.00;150940.75;5009101;28;20036;-74
2022/12/18 10:01:24;;;;;;;35.95;15.90;;;;;;;-6.54;100.00;150929.31;4992097;28;20037;-74
2022/12/18 10:03:53;;;;;;;33.35;15.57;;;;;;;-6.55;100.00;150925.56;5013160;28;20493;-74
2022/12/18 10:06:34;;;;;;;33.38;14.93;;;;;;;-6.48;100.00;150944.56;4989464;28;20552;-74
2022/12/18 10:09:15;;;;;;;30.25;15.32;;;;;;;-6.50;100.00;150939.50;5000072;28;20034;-76
2022/12/18 10:11:59;;;;;;;31.95;16.00;;;;;;;-6.47;100.00;150947.06;5025837;28;20039;-75
2022/12/18 10:14:52;;;;;;;33.03;15.70;;;;;;;-6.46;100.00;150948.34;5007246;28;20137;-75
2022/12/18 10:17:56;;;;;;;34.70;15.98;;;;;;;-6.33;100.00;150980.03;5008072;28;20103;-75
2022/12/18 10:20:38;;;;;;;33.58;15.13;;;;;;;-6.25;100.00;151000.31;5008682;28;20052;-74
2022/12/18 10:23:33;;;;;;;35.58;15.95;;;;;;;-6.25;100.00;151000.31;5008024;28;20052;-74
2022/12/18 10:26:09;;;;;;;32.53;15.00;;;;;;;-6.12;100.00;151033.28;5035819;28;20056;-74
2022/12/18 10:28:38;;;;;;;38.58;16.20;;;;;;;-6.03;100.00;151053.53;5018400;28;20032;-74
2022/12/18 10:31:17;;;;;;;30.65;14.68;;;;;;;-5.85;100.00;151099.16;5045969;28;20375;-74
2022/12/18 10:33:42;;;;;;;32.78;15.45;;;;;;;-5.83;100.00;151104.22;5018736;28;20056;-75
2022/12/18 10:36:08;;;;;;;30.00;14.88;;;;;;;-5.80;100.00;151110.53;5003344;28;20053;-75
2022/12/18 10:38:34;;;;;;;24.48;13.98;;;;;;;-5.58;100.00;151165.06;5022374;28;20516;-76
2022/12/18 10:41:02;;;;;;;29.50;15.93;;;;;;;-5.59;100.00;151163.81;5019082;28;20039;-77
2022/12/18 10:43:36;;;;;;;32.90;14.98;;;;;;;-5.62;100.00;151154.94;5022992;28;20041;-76
2022/12/18 10:46:07;;;;;;;31.15;15.60;;;;;;;-5.66;100.00;151146.06;5020451;28;20041;-74
2022/12/18 10:48:54;;;;;;;31.40;15.45;;;;;;;-5.57;100.00;151168.88;5030264;28;20032;-75
2022/12/18 10:51:28;;;;;;;33.17;15.60;;;;;;;-5.63;100.00;151152.38;5029382;28;20044;-74
2022/12/18 10:54:20;;;;;;;35.38;16.38;;;;;;;-5.55;100.00;151172.69;5005843;28;20095;-76
2022/12/18 10:56:46;;;;;;;36.28;16.00;;;;;;;-5.61;100.00;151158.75;5009703;28;20127;-76
2022/12/18 10:59:15;;;;;;;33.45;16.02;;;;;;;-5.59;100.00;151163.81;5004391;28;20136;-75
2022/12/18 11:01:57;;;;;;;41.67;19.73;;;;;;;-5.61;100.00;151158.75;5026492;28;20028;-76
2022/12/18 11:04:32;;;;;;;31.67;15.35;;;;;;;-5.55;100.00;151173.94;5008403;28;20048;-75
2022/12/18 11:07:01;;;;;;;36.70;17.33;;;;;;;-5.53;100.00;151179.03;5008354;28;20047;-74
2022/12/18 11:09:29;;;;;;;37.63;18.00;;;;;;;-5.43;100.00;151203.09;5037948;28;20033;-75
2022/12/18 11:11:58;;;;;;;40.33;19.05;;;;;;;-5.40;100.00;151209.47;5017702;28;20028;-74
2022/12/18 11:14:30;;;;;;;40.58;18.70;;;;;;;-5.45;100.00;151196.78;5002197;28;20029;-75
2022/12/18 11:16:58;;;;;;;32.35;17.17;;;;;;;-5.44;100.00;151200.59;5021118;28;20146;-74
2022/12/18 11:19:37;;;;;;;38.92;17.45;;;;;;;-5.36;100.00;151219.63;5032374;28;20037;-75